createdAt,value
2024-05-09T00:01:57.069Z,62.70
2024-05-09T00:06:58.763Z,62.90
2024-05-09T00:12:00.577Z,62.90
2024-05-09T00:17:02.574Z,63.03
2024-05-09T00:22:04.394Z,63.21
2024-05-09T00:27:06.067Z,62.93
2024-05-09T00:32:08.114Z,63.32
2024-05-09T00:37:09.844Z,63.70
2024-05-09T00:42:11.550Z,64.24
2024-05-09T00:47:13.406Z,64.49
2024-05-09T00:52:15.332Z,64.69
2024-05-09T00:57:17.513Z,64.67
2024-05-09T01:02:20.640Z,65.18
2024-05-09T01:07:22.395Z,65.91
2024-05-09T01:12:24.865Z,66.25
2024-05-09T01:17:27.250Z,66.45
2024-05-09T01:22:30.946Z,66.57
2024-05-09T01:27:32.591Z,66.78
2024-05-09T01:32:34.419Z,66.86
2024-05-09T01:37:36.318Z,66.85
2024-05-09T01:42:38.097Z,66.91
2024-05-09T01:47:39.863Z,66.86
2024-05-09T01:52:41.679Z,66.89
2024-05-09T01:57:43.354Z,66.92
2024-05-09T02:02:45.638Z,67.46
2024-05-09T02:07:47.499Z,67.36
2024-05-09T02:12:49.197Z,67.98
2024-05-09T02:17:51.543Z,67.81
2024-05-09T02:22:53.549Z,68.19
2024-05-09T02:27:55.296Z,68.64
2024-05-09T02:32:57.162Z,68.76
2024-05-09T02:37:58.942Z,68.74
2024-05-09T02:43:00.749Z,68.92
2024-05-09T02:48:02.980Z,69.16
2024-05-09T02:53:05.092Z,69.39
2024-05-09T02:58:07.728Z,69.80
2024-05-09T03:03:13.075Z,69.66
2024-05-09T03:08:16.782Z,69.39
2024-05-09T03:13:18.490Z,69.29
2024-05-09T03:18:20.245Z,69.62
2024-05-09T03:23:22.065Z,69.59
2024-05-09T03:28:23.864Z,69.94
2024-05-09T03:33:25.965Z,69.92
2024-05-09T03:38:28.081Z,69.99
2024-05-09T03:43:29.837Z,69.84
2024-05-09T03:48:35.360Z,69.88
2024-05-09T03:53:37.210Z,69.87
2024-05-09T03:58:39.314Z,69.97
2024-05-09T04:03:41.221Z,69.71
2024-05-09T04:08:43.081Z,69.91
2024-05-09T04:13:44.931Z,69.99
2024-05-09T04:18:46.860Z,69.86
2024-05-09T04:23:48.823Z,69.77
2024-05-09T04:28:50.686Z,69.76
2024-05-09T04:33:52.429Z,69.73
2024-05-09T04:38:54.236Z,69.92
2024-05-09T04:43:55.934Z,69.58
2024-05-09T04:48:57.813Z,69.30
2024-05-09T04:53:59.531Z,68.95
2024-05-09T04:59:01.368Z,69.21
2024-05-09T05:04:03.180Z,69.19
2024-05-09T05:09:05.076Z,68.94
2024-05-09T05:14:06.801Z,68.78
2024-05-09T05:19:12.687Z,68.65
2024-05-09T05:24:15.928Z,68.12
2024-05-09T05:29:20.189Z,68.08
2024-05-09T05:34:22.499Z,67.65
2024-05-09T05:39:24.231Z,67.48
2024-05-09T05:44:25.930Z,67.41
2024-05-09T05:49:27.774Z,67.02
2024-05-09T05:54:29.558Z,66.69
2024-05-09T05:59:31.328Z,65.97
2024-05-09T06:04:33.204Z,65.52
2024-05-09T06:09:35.000Z,65.76
2024-05-09T06:14:36.713Z,65.67
2024-05-09T06:19:38.488Z,65.30
2024-05-09T06:24:40.196Z,65.37
2024-05-09T06:29:41.919Z,65.16
2024-05-09T06:34:43.885Z,64.66
2024-05-09T06:39:46.455Z,64.48
2024-05-09T06:44:48.154Z,64.23
2024-05-09T06:49:49.874Z,63.98
2024-05-09T06:54:51.555Z,63.69
2024-05-09T06:59:53.320Z,63.44
2024-05-09T07:04:55.175Z,63.14
2024-05-09T07:09:57.003Z,62.91
2024-05-09T07:14:58.714Z,62.49
2024-05-09T07:20:00.425Z,62.29
2024-05-09T07:25:02.611Z,62.30
2024-05-09T07:30:07.093Z,62.36
2024-05-09T07:35:08.937Z,62.00
2024-05-09T07:40:17.675Z,62.28
2024-05-09T07:45:43.322Z,61.74
2024-05-09T07:55:53.162Z,60.69
2024-05-09T08:00:55.216Z,60.29
2024-05-09T08:05:57.159Z,60.00
2024-05-09T08:10:58.803Z,59.32
2024-05-09T08:16:00.859Z,59.40
2024-05-09T08:21:03.149Z,58.95
2024-05-09T08:26:05.400Z,58.44
2024-05-09T08:31:07.544Z,57.66
2024-05-09T08:36:09.647Z,57.38
2024-05-09T08:41:13.892Z,57.23
2024-05-09T08:46:18.442Z,56.98
2024-05-09T08:51:20.226Z,56.92
2024-05-09T08:56:28.217Z,56.39
2024-05-09T09:01:32.018Z,56.00
2024-05-09T09:06:35.210Z,55.53
2024-05-09T09:11:37.083Z,55.09
2024-05-09T09:16:38.818Z,54.47
2024-05-09T09:21:40.535Z,54.29
2024-05-09T09:26:44.978Z,53.62
2024-05-09T09:31:57.063Z,53.18
2024-05-09T09:37:04.527Z,52.32
2024-05-09T09:42:06.386Z,52.04
2024-05-09T09:47:09.342Z,51.05
2024-05-09T09:52:13.389Z,51.11
2024-05-09T09:57:16.081Z,50.78
2024-05-09T10:02:17.924Z,50.80
2024-05-09T10:07:21.419Z,51.02
2024-05-09T10:12:23.898Z,50.93
2024-05-09T10:17:25.764Z,50.46
2024-05-09T10:22:28.483Z,49.90
2024-05-09T10:27:30.926Z,49.48
2024-05-09T10:32:40.705Z,48.66
2024-05-09T10:37:42.860Z,48.37
2024-05-09T10:42:44.769Z,47.98
2024-05-09T10:47:46.668Z,47.65
2024-05-09T10:52:48.461Z,48.10
2024-05-09T10:57:50.149Z,47.95
2024-05-09T11:02:51.984Z,47.04
2024-05-09T11:07:53.912Z,46.97
2024-05-09T11:12:55.688Z,46.59
2024-05-09T11:17:57.522Z,46.77
2024-05-09T11:22:59.298Z,46.39
2024-05-09T11:28:02.157Z,46.47
2024-05-09T11:33:04.203Z,46.25
2024-05-09T11:38:05.896Z,46.48
2024-05-09T11:43:07.765Z,45.97
2024-05-09T11:48:09.672Z,45.11
2024-05-09T11:53:12.304Z,45.07
2024-05-09T11:58:16.932Z,44.86
2024-05-09T12:03:18.929Z,44.90
2024-05-09T12:08:20.736Z,44.74
2024-05-09T12:13:22.478Z,44.77
2024-05-09T12:18:24.531Z,44.15
2024-05-09T12:23:26.306Z,44.28
2024-05-09T12:28:27.997Z,43.89
2024-05-09T12:33:29.830Z,43.71
2024-05-09T12:38:31.642Z,43.34
2024-05-09T12:43:33.421Z,42.91
2024-05-09T12:48:35.439Z,43.18
2024-05-09T12:53:37.454Z,43.28
2024-05-09T12:58:39.226Z,43.25
2024-05-09T13:03:41.057Z,42.98
2024-05-09T13:08:43.059Z,42.93
2024-05-09T13:13:44.804Z,42.40
2024-05-09T13:18:46.529Z,42.22
2024-05-09T13:23:48.365Z,41.90
2024-05-09T13:28:49.988Z,42.00
2024-05-09T13:33:51.978Z,41.30
2024-05-09T13:38:54.486Z,41.14
2024-05-09T13:43:56.418Z,41.02
2024-05-09T13:48:58.351Z,40.66
2024-05-09T13:54:00.028Z,40.83
2024-05-09T13:59:01.750Z,40.39
2024-05-09T14:04:03.720Z,40.84
2024-05-09T14:09:05.531Z,40.80
2024-05-09T14:14:07.220Z,40.69
2024-05-09T14:19:09.417Z,40.95
2024-05-09T14:24:11.147Z,40.89
2024-05-09T14:29:12.838Z,41.17
2024-05-09T14:34:14.760Z,41.49
2024-05-09T14:39:16.671Z,41.82
2024-05-09T14:44:18.373Z,41.86
2024-05-09T14:49:20.264Z,41.96
2024-05-09T14:54:22.110Z,42.39
2024-05-09T14:59:23.823Z,42.24
2024-05-09T15:04:27.549Z,42.04
2024-05-09T15:09:35.327Z,42.05
2024-05-09T15:14:37.605Z,42.42
2024-05-09T15:19:39.519Z,41.85
2024-05-09T15:24:42.198Z,41.97
2024-05-09T15:29:44.015Z,42.47
2024-05-09T15:34:45.975Z,43.21
2024-05-09T15:39:48.172Z,43.21
2024-05-09T15:44:52.802Z,43.59
2024-05-09T15:49:54.804Z,43.25
2024-05-09T15:54:56.714Z,43.20
2024-05-09T15:59:58.667Z,43.26
2024-05-09T16:05:00.893Z,43.41
2024-05-09T16:10:04.156Z,43.43
2024-05-09T16:15:07.523Z,43.60
2024-05-09T16:20:14.981Z,43.31
2024-05-09T16:25:19.862Z,43.50
2024-05-09T16:30:28.270Z,43.52
2024-05-09T16:35:36.879Z,43.31
2024-05-09T16:40:40.879Z,43.78
2024-05-09T16:45:44.686Z,43.49
2024-05-09T16:50:46.709Z,43.82
2024-05-09T16:55:48.599Z,43.93
2024-05-09T17:00:50.728Z,44.20
2024-05-09T17:05:52.921Z,44.32
2024-05-09T17:10:55.395Z,44.73
2024-05-09T17:15:57.296Z,45.18
2024-05-09T17:20:58.951Z,45.30
2024-05-09T17:26:00.758Z,45.65
2024-05-09T17:31:02.455Z,45.93
2024-05-09T17:36:04.460Z,46.25
2024-05-09T17:41:06.197Z,46.54
2024-05-09T17:46:08.104Z,47.08
2024-05-09T17:51:09.929Z,47.49
2024-05-09T17:56:11.741Z,47.95
2024-05-09T18:01:13.814Z,48.30
2024-05-09T18:06:16.495Z,48.79
2024-05-09T18:11:18.414Z,49.22
2024-05-09T18:16:20.724Z,49.65
2024-05-09T18:21:22.511Z,50.08
2024-05-09T18:26:24.178Z,50.64
2024-05-09T18:31:25.947Z,50.91
2024-05-09T18:36:28.116Z,51.37
2024-05-09T18:41:29.751Z,51.42
2024-05-09T18:46:31.848Z,51.88
2024-05-09T18:51:33.633Z,52.24
2024-05-09T18:56:37.316Z,52.83
2024-05-09T19:01:41.866Z,53.18
2024-05-09T19:06:45.315Z,53.58
2024-05-09T19:11:49.641Z,53.68
2024-05-09T19:16:51.408Z,54.22
2024-05-09T19:21:53.669Z,54.29
2024-05-09T19:26:56.322Z,54.62
2024-05-09T19:31:58.073Z,54.89
2024-05-09T19:37:01.284Z,55.20
2024-05-09T19:42:03.199Z,55.69
2024-05-09T19:47:05.013Z,55.83
2024-05-09T19:52:06.711Z,56.18
2024-05-09T19:57:08.451Z,56.51
2024-05-09T20:02:10.309Z,56.75
2024-05-09T20:07:12.781Z,57.17
2024-05-09T20:12:14.674Z,57.47
2024-05-09T20:17:16.444Z,57.82
2024-05-09T20:22:18.337Z,57.77
2024-05-09T20:27:20.095Z,58.01
2024-05-09T20:32:22.062Z,58.25
2024-05-09T20:37:24.606Z,58.29
2024-05-09T20:42:26.366Z,58.68
2024-05-09T20:47:28.265Z,58.86
2024-05-09T20:52:30.144Z,59.00
2024-05-09T20:57:32.174Z,59.38
2024-05-09T21:02:37.898Z,59.67
2024-05-09T21:07:39.967Z,59.84
2024-05-09T21:12:41.788Z,60.08
2024-05-09T21:17:43.679Z,60.35
2024-05-09T21:22:46.443Z,60.51
2024-05-09T21:27:48.712Z,60.91
2024-05-09T21:32:50.667Z,61.06
2024-05-09T21:37:52.333Z,61.53
2024-05-09T21:42:55.101Z,61.62
2024-05-09T21:47:57.226Z,61.92
2024-05-09T21:52:59.093Z,61.98
2024-05-09T21:58:00.995Z,62.24
2024-05-09T22:03:02.882Z,62.07
2024-05-09T22:08:05.002Z,62.05
2024-05-09T22:13:08.334Z,62.42
2024-05-09T22:18:11.314Z,62.11
2024-05-09T22:23:15.432Z,61.97
2024-05-09T22:28:17.375Z,62.04
2024-05-09T22:33:19.308Z,62.12
2024-05-09T22:38:21.019Z,62.16
2024-05-09T22:43:24.649Z,62.35
2024-05-09T22:48:27.114Z,62.48
2024-05-09T22:53:28.853Z,62.71
2024-05-09T22:58:30.900Z,62.44
2024-05-09T23:03:32.921Z,63.24
2024-05-09T23:08:34.849Z,62.93
2024-05-09T23:13:36.898Z,63.29
2024-05-09T23:18:38.786Z,63.48
2024-05-09T23:23:42.000Z,63.80
2024-05-09T23:28:43.688Z,63.61
2024-05-09T23:33:46.860Z,63.62
2024-05-09T23:38:49.081Z,63.93
2024-05-09T23:43:52.470Z,64.00
2024-05-09T23:48:54.277Z,64.55
2024-05-09T23:53:56.018Z,64.33
2024-05-09T23:58:57.643Z,64.69
